Time;durP1;ratioP1;P1;durP2;ratioP2;P2;SDS_P1;SDS_P2;PMS_P1;PMS_P2;Temp;Humidity;BMP_temperature;BMP_pressure;BME280_temperature;BME280_humidity;BME280_pressure;Samples;Min_cycle;Max_cycle;Signal;HPM_P1;HPM_P2
2022/06/10 00:00:02;;;;;;;5.33;2.90;;;;;;;;;;518134;28;1695;-78
2022/06/10 00:00:21;;;;;;;5.38;3.00;;;;;;;;;;519354;28;909;-78
2022/06/10 00:00:38;;;;;;;4.38;2.80;;;;;;;;;;521830;28;970;-78
2022/06/10 00:00:54;;;;;;;5.30;2.70;;;;;;;;;;520207;28;1604;-78
2022/06/10 00:01:10;;;;;;;5.50;2.88;;;;;;;;;;520123;28;1758;-78
2022/06/10 00:01:25;;;;;;;3.95;2.90;;;;;;;;;;521360;28;1592;-78
2022/06/10 00:01:40;;;;;;;4.47;2.90;;;;;;;;;;521960;28;1060;-78
2022/06/10 00:01:56;;;;;;;4.77;2.93;;;;;;;;;;520288;28;1604;-78
2022/06/10 00:02:11;;;;;;;4.15;2.88;;;;;;;;;;521234;28;1537;-78
2022/06/10 00:02:26;;;;;;;5.03;2.80;;;;;;;;;;521548;28;860;-78
2022/06/10 00:02:45;;;;;;;5.97;2.77;;;;;;;;;;519537;28;1241;-78
2022/06/10 00:03:00;;;;;;;4.50;2.75;;;;;;;;;;517514;28;1397;-78
2022/06/10 00:03:18;;;;;;;4.87;2.73;;;;;;;;;;517970;28;1113;-78
2022/06/10 00:03:35;;;;;;;5.45;2.70;;;;;;;;;;518025;28;1059;-78
2022/06/10 00:03:51;;;;;;;6.07;2.80;;;;;;;;;;517845;28;976;-78
2022/06/10 00:04:06;;;;;;;4.80;2.80;;;;;;;;;;519236;28;1367;-78
2022/06/10 00:04:22;;;;;;;4.90;2.87;;;;;;;;;;517618;28;1554;-78
2022/06/10 00:04:37;;;;;;;5.25;2.90;;;;;;;;;;519047;28;1314;-78
2022/06/10 00:04:53;;;;;;;4.93;2.87;;;;;;;;;;517979;28;1283;-78
2022/06/10 00:05:29;;;;;;;4.50;2.63;;;;;;;;;;517488;28;835;-78
2022/06/10 00:05:47;;;;;;;4.80;2.60;;;;;;;;;;515952;28;1519;-78
2022/06/10 00:06:06;;;;;;;3.38;2.65;;;;;;;;;;518239;28;1528;-78
2022/06/10 00:06:21;;;;;;;3.30;2.63;;;;;;;;;;519667;28;933;-78
2022/06/10 00:06:37;;;;;;;5.00;2.80;;;;;;;;;;519226;28;1478;-78
2022/06/10 00:06:52;;;;;;;5.55;2.80;;;;;;;;;;521567;28;949;-78
2022/06/10 00:07:08;;;;;;;5.27;2.80;;;;;;;;;;519836;28;1706;-78
2022/06/10 00:07:24;;;;;;;6.10;3.00;;;;;;;;;;520103;28;892;-78
2022/06/10 00:07:40;;;;;;;5.13;3.00;;;;;;;;;;519933;28;1561;-78
2022/06/10 00:07:56;;;;;;;5.55;3.00;;;;;;;;;;520308;28;877;-78
2022/06/10 00:08:15;;;;;;;5.78;2.90;;;;;;;;;;520136;28;1417;-78
2022/06/10 00:08:33;;;;;;;4.95;2.80;;;;;;;;;;518764;28;1604;-78
2022/06/10 00:08:49;;;;;;;6.10;2.88;;;;;;;;;;517610;28;1288;-78
2022/06/10 00:09:04;;;;;;;5.43;2.85;;;;;;;;;;516894;28;1474;-78
2022/06/10 00:09:20;;;;;;;5.27;2.90;;;;;;;;;;517825;28;909;-78
2022/06/10 00:09:35;;;;;;;4.95;2.90;;;;;;;;;;516494;28;1652;-78
2022/06/10 00:09:50;;;;;;;4.73;2.80;;;;;;;;;;516664;28;1755;-78
2022/06/10 00:10:08;;;;;;;4.90;2.80;;;;;;;;;;515658;28;1216;-78
2022/06/10 00:10:26;;;;;;;4.47;2.72;;;;;;;;;;515642;28;1231;-78
2022/06/10 00:10:45;;;;;;;3.83;2.80;;;;;;;;;;516930;28;920;-78
2022/06/10 00:11:02;;;;;;;4.20;3.00;;;;;;;;;;519690;28;902;-78
2022/06/10 00:11:17;;;;;;;3.95;2.80;;;;;;;;;;520169;28;865;-78
2022/06/10 00:11:33;;;;;;;4.60;2.70;;;;;;;;;;520368;28;853;-78
2022/06/10 00:11:48;;;;;;;5.47;2.85;;;;;;;;;;518148;28;1605;-78
2022/06/10 00:12:04;;;;;;;4.70;2.87;;;;;;;;;;519847;28;806;-78
2022/06/10 00:12:20;;;;;;;4.13;2.80;;;;;;;;;;521619;28;1760;-78
2022/06/10 00:12:36;;;;;;;3.43;2.70;;;;;;;;;;522310;28;1780;-78
2022/06/10 00:12:51;;;;;;;3.40;2.80;;;;;;;;;;519357;28;1629;-78
2022/06/10 00:13:07;;;;;;;3.78;2.90;;;;;;;;;;520325;28;822;-78
2022/06/10 00:13:25;;;;;;;4.57;2.70;;;;;;;;;;518225;28;1203;-78
2022/06/10 00:13:44;;;;;;;5.57;2.88;;;;;;;;;;519203;28;869;-78
2022/06/10 00:13:59;;;;;;;4.60;2.75;;;;;;;;;;520107;28;904;-78
2022/06/10 00:14:15;;;;;;;5.03;2.77;;;;;;;;;;520091;28;1553;-78
2022/06/10 00:14:31;;;;;;;6.80;3.00;;;;;;;;;;517724;28;1915;-78
2022/06/10 00:14:46;;;;;;;6.80;2.92;;;;;;;;;;519252;28;929;-78
2022/06/10 00:15:02;;;;;;;5.20;2.60;;;;;;;;;;520057;28;1027;-78
2022/06/10 00:15:18;;;;;;;5.75;2.65;;;;;;;;;;518720;28;1569;-78
2022/06/10 00:15:34;;;;;;;5.28;2.75;;;;;;;;;;519733;28;1564;-78
2022/06/10 00:15:50;;;;;;;4.68;2.85;;;;;;;;;;518701;28;1502;-78
2022/06/10 00:16:06;;;;;;;4.72;2.85;;;;;;;;;;518576;28;1611;-78
2022/06/10 00:16:23;;;;;;;5.22;2.90;;;;;;;;;;518167;28;2486;-78
2022/06/10 00:16:38;;;;;;;5.15;2.97;;;;;;;;;;519156;28;1470;-78
2022/06/10 00:16:54;;;;;;;5.05;2.65;;;;;;;;;;519131;28;1537;-78
2022/06/10 00:17:09;;;;;;;5.20;2.70;;;;;;;;;;516168;28;1551;-78
2022/06/10 00:17:24;;;;;;;3.70;2.80;;;;;;;;;;517995;28;1589;-78
2022/06/10 00:17:40;;;;;;;3.53;2.70;;;;;;;;;;517588;28;1557;-78
2022/06/10 00:17:56;;;;;;;4.27;2.73;;;;;;;;;;516552;28;799;-78
2022/06/10 00:18:12;;;;;;;4.40;2.70;;;;;;;;;;517693;28;1239;-78
2022/06/10 00:18:29;;;;;;;4.78;2.70;;;;;;;;;;518013;28;996;-78
2022/06/10 00:18:46;;;;;;;5.05;2.78;;;;;;;;;;518354;28;917;-78
2022/06/10 00:19:01;;;;;;;4.82;2.72;;;;;;;;;;516151;28;1212;-78
2022/06/10 00:19:17;;;;;;;5.23;2.80;;;;;;;;;;517049;28;823;-78
2022/06/10 00:19:32;;;;;;;4.10;2.65;;;;;;;;;;516194;28;1281;-78
2022/06/10 00:19:48;;;;;;;3.93;2.63;;;;;;;;;;517861;28;902;-78
2022/06/10 00:20:05;;;;;;;4.82;2.80;;;;;;;;;;516996;28;1250;-78
2022/06/10 00:20:24;;;;;;;5.32;2.90;;;;;;;;;;516066;28;1596;-78
2022/06/10 00:20:39;;;;;;;4.72;2.78;;;;;;;;;;515912;28;1663;-78
2022/06/10 00:20:58;;;;;;;4.82;2.75;;;;;;;;;;515919;28;1358;-78
2022/06/10 00:21:15;;;;;;;7.18;2.80;;;;;;;;;;516597;28;1499;-78
2022/06/10 00:21:31;;;;;;;6.00;2.80;;;;;;;;;;515952;28;1766;-78
2022/06/10 00:21:46;;;;;;;4.00;2.90;;;;;;;;;;516288;28;838;-78
2022/06/10 00:22:02;;;;;;;3.40;2.70;;;;;;;;;;516179;28;1699;-78
2022/06/10 00:22:17;;;;;;;4.03;2.75;;;;;;;;;;517050;28;886;-78
2022/06/10 00:22:33;;;;;;;5.22;2.92;;;;;;;;;;518227;28;1600;-78
2022/06/10 00:22:49;;;;;;;5.83;2.90;;;;;;;;;;519340;28;1013;-78
2022/06/10 00:23:04;;;;;;;6.03;2.80;;;;;;;;;;521002;28;869;-78
2022/06/10 00:23:20;;;;;;;6.65;2.80;;;;;;;;;;522239;28;1046;-78
2022/06/10 00:23:36;;;;;;;7.05;3.15;;;;;;;;;;522363;28;905;-78
2022/06/10 00:23:51;;;;;;;6.30;3.20;;;;;;;;;;522453;28;964;-78
2022/06/10 00:24:07;;;;;;;4.50;2.90;;;;;;;;;;522252;28;1340;-78
2022/06/10 00:24:22;;;;;;;4.38;2.90;;;;;;;;;;520357;28;905;-78
2022/06/10 00:24:38;;;;;;;4.90;2.90;;;;;;;;;;520687;28;846;-78
2022/06/10 00:24:53;;;;;;;4.57;2.87;;;;;;;;;;520107;28;1724;-78
2022/06/10 00:25:09;;;;;;;4.93;2.97;;;;;;;;;;520143;28;1469;-78
2022/06/10 00:25:26;;;;;;;5.25;3.10;;;;;;;;;;515952;28;1298;-78
2022/06/10 00:25:42;;;;;;;4.95;3.08;;;;;;;;;;517920;28;1597;-78
2022/06/10 00:25:57;;;;;;;5.18;3.08;;;;;;;;;;516749;28;1171;-78
2022/06/10 00:26:14;;;;;;;5.05;3.08;;;;;;;;;;515901;28;1581;-78
2022/06/10 00:26:29;;;;;;;5.28;3.10;;;;;;;;;;516131;28;1075;-78
2022/06/10 00:26:44;;;;;;;4.38;3.10;;;;;;;;;;516579;28;1526;-78
2022/06/10 00:27:00;;;;;;;3.43;2.90;;;;;;;;;;517897;28;925;-78
2022/06/10 00:27:18;;;;;;;5.20;2.80;;;;;;;;;;518257;28;1545;-78
2022/06/10 00:27:33;;;;;;;5.10;2.90;;;;;;;;;;515895;28;1288;-78
2022/06/10 00:27:49;;;;;;;5.57;2.87;;;;;;;;;;514761;28;1172;-78
2022/06/10 00:28:06;;;;;;;5.63;3.00;;;;;;;;;;517811;28;1781;-78
2022/06/10 00:28:22;;;;;;;4.80;2.90;;;;;;;;;;515903;28;1185;-78
2022/06/10 00:28:38;;;;;;;4.97;2.78;;;;;;;;;;515672;28;1651;-78
2022/06/10 00:28:53;;;;;;;4.70;3.00;;;;;;;;;;515642;28;1452;-78
2022/06/10 00:29:08;;;;;;;4.80;3.10;;;;;;;;;;512177;28;1582;-78
2022/06/10 00:29:24;;;;;;;5.40;3.10;;;;;;;;;;514421;28;1473;-78
2022/06/10 00:29:39;;;;;;;5.63;3.13;;;;;;;;;;516629;28;1413;-78
2022/06/10 00:29:55;;;;;;;5.03;3.13;;;;;;;;;;517782;28;1852;-78
2022/06/10 00:30:11;;;;;;;4.13;2.90;;;;;;;;;;518051;28;896;-78
2022/06/10 00:30:29;;;;;;;3.80;2.83;;;;;;;;;;517842;28;1585;-78
2022/06/10 00:30:44;;;;;;;3.63;3.00;;;;;;;;;;518363;28;905;-78
2022/06/10 00:31:00;;;;;;;3.43;2.87;;;;;;;;;;520811;28;1013;-78
2022/06/10 00:31:17;;;;;;;4.20;2.97;;;;;;;;;;522147;28;901;-78
2022/06/10 00:31:32;;;;;;;4.50;3.10;;;;;;;;;;520801;28;1481;-78
2022/06/10 00:31:47;;;;;;;3.90;3.00;;;;;;;;;;519831;28;1176;-78
2022/06/10 00:32:03;;;;;;;5.30;2.90;;;;;;;;;;520102;28;861;-78
2022/06/10 00:32:19;;;;;;;5.05;3.00;;;;;;;;;;520080;28;1319;-78
2022/06/10 00:32:34;;;;;;;4.30;3.00;;;;;;;;;;519965;28;1255;-78
2022/06/10 00:32:50;;;;;;;5.18;2.70;;;;;;;;;;520034;28;902;-78
2022/06/10 00:33:06;;;;;;;5.93;2.80;;;;;;;;;;518945;28;1639;-78
2022/06/10 00:33:22;;;;;;;4.78;2.90;;;;;;;;;;518094;28;1039;-78
2022/06/10 00:33:40;;;;;;;4.28;2.90;;;;;;;;;;518639;28;1688;-78
2022/06/10 00:33:56;;;;;;;3.47;2.80;;;;;;;;;;518183;28;1423;-78
2022/06/10 00:34:11;;;;;;;3.47;2.90;;;;;;;;;;520217;28;865;-78
2022/06/10 00:34:27;;;;;;;3.67;3.00;;;;;;;;;;521160;28;1917;-78
2022/06/10 00:34:43;;;;;;;4.80;3.10;;;;;;;;;;522271;28;1663;-78
2022/06/10 00:34:58;;;;;;;6.05;3.17;;;;;;;;;;520139;28;1226;-78
2022/06/10 00:35:15;;;;;;;4.97;3.20;;;;;;;;;;518090;28;1366;-78
2022/06/10 00:35:31;;;;;;;4.15;2.97;;;;;;;;;;518168;28;981;-78
2022/06/10 00:35:49;;;;;;;5.03;2.80;;;;;;;;;;518069;28;1811;-78
2022/06/10 00:36:05;;;;;;;5.35;2.90;;;;;;;;;;515940;28;1687;-78
2022/06/10 00:36:21;;;;;;;3.40;2.83;;;;;;;;;;516104;28;906;-78
2022/06/10 00:36:36;;;;;;;3.17;2.67;;;;;;;;;;515150;28;1296;-78
2022/06/10 00:36:52;;;;;;;4.87;2.60;;;;;;;;;;517110;28;1660;-78
2022/06/10 00:37:08;;;;;;;5.37;2.80;;;;;;;;;;518406;28;1747;-78
2022/06/10 00:37:24;;;;;;;4.73;2.97;;;;;;;;;;516153;28;1164;-78
2022/06/10 00:37:40;;;;;;;5.43;3.10;;;;;;;;;;516966;28;1192;-78
2022/06/10 00:37:56;;;;;;;4.43;2.92;;;;;;;;;;517566;28;1494;-78
2022/06/10 00:38:12;;;;;;;3.00;2.70;;;;;;;;;;516172;28;803;-78
2022/06/10 00:38:27;;;;;;;4.13;2.77;;;;;;;;;;516647;28;1660;-78
2022/06/10 00:38:43;;;;;;;4.53;2.85;;;;;;;;;;518496;28;1612;-78
2022/06/10 00:38:59;;;;;;;4.00;2.80;;;;;;;;;;517938;28;1287;-78
2022/06/10 00:39:14;;;;;;;3.38;2.72;;;;;;;;;;518694;28;889;-78
2022/06/10 00:39:30;;;;;;;3.27;2.70;;;;;;;;;;520690;28;1086;-78
2022/06/10 00:39:45;;;;;;;4.43;2.73;;;;;;;;;;520625;28;1632;-78
2022/06/10 00:40:01;;;;;;;4.45;2.67;;;;;;;;;;518007;28;1267;-78
2022/06/10 00:40:30;;;;;;;3.72;2.60;;;;;;;;;;515817;28;1453;-78
2022/06/10 00:40:54;;;;;;;3.95;2.78;;;;;;;;;;514295;28;1304;-78
2022/06/10 00:41:09;;;;;;;5.15;2.97;;;;;;;;;;516591;28;1591;-78
2022/06/10 00:41:25;;;;;;;3.97;2.80;;;;;;;;;;517867;28;1582;-78
2022/06/10 00:41:42;;;;;;;4.97;2.97;;;;;;;;;;518248;28;1681;-78
2022/06/10 00:41:58;;;;;;;5.03;2.80;;;;;;;;;;519671;28;1667;-78
2022/06/10 00:42:14;;;;;;;5.50;2.80;;;;;;;;;;519525;28;1684;-78
2022/06/10 00:42:29;;;;;;;6.05;2.97;;;;;;;;;;519960;28;1411;-78
2022/06/10 00:42:45;;;;;;;6.00;2.90;;;;;;;;;;521241;28;1394;-78
2022/06/10 00:43:00;;;;;;;6.63;2.83;;;;;;;;;;521133;28;909;-78
2022/06/10 00:43:19;;;;;;;6.00;2.80;;;;;;;;;;520209;28;1635;-78
2022/06/10 00:43:35;;;;;;;4.57;2.83;;;;;;;;;;522360;28;1686;-78
2022/06/10 00:43:51;;;;;;;4.07;2.80;;;;;;;;;;522181;28;1768;-78
2022/06/10 00:44:34;;;;;;;4.00;2.80;;;;;;;;;;522243;28;1536;-78
2022/06/10 00:44:52;;;;;;;3.63;2.90;;;;;;;;;;520239;28;1024;-78
2022/06/10 00:45:47;;;;;;;3.90;3.00;;;;;;;;;;520732;28;1647;-78
2022/06/10 00:46:12;;;;;;;4.78;2.72;;;;;;;;;;515592;28;1311;-78
2022/06/10 00:46:34;;;;;;;4.20;2.63;;;;;;;;;;513697;28;1349;-78
2022/06/10 00:46:49;;;;;;;3.22;2.50;;;;;;;;;;513719;28;946;-77
2022/06/10 00:47:20;;;;;;;3.53;2.47;;;;;;;;;;515512;28;807;-77
2022/06/10 00:47:39;;;;;;;3.30;2.67;;;;;;;;;;515951;28;969;-77
2022/06/10 00:47:54;;;;;;;2.78;2.47;;;;;;;;;;516564;28;1826;-77
2022/06/10 00:48:13;;;;;;;3.90;2.60;;;;;;;;;;518065;28;1003;-77
2022/06/10 00:48:31;;;;;;;4.20;2.67;;;;;;;;;;520135;28;878;-77
2022/06/10 00:49:12;;;;;;;3.53;2.67;;;;;;;;;;517795;28;1742;-78
2022/06/10 00:49:28;;;;;;;4.53;2.70;;;;;;;;;;516044;28;913;-78
2022/06/10 00:49:49;;;;;;;4.53;2.63;;;;;;;;;;517479;28;1799;-78
2022/06/10 00:50:22;;;;;;;5.95;2.80;;;;;;;;;;519751;28;1817;-78
2022/06/10 00:50:37;;;;;;;3.70;2.63;;;;;;;;;;519797;28;921;-78
2022/06/10 00:50:53;;;;;;;3.87;2.80;;;;;;;;;;519927;28;1319;-78
2022/06/10 00:51:35;;;;;;;3.65;2.83;;;;;;;;;;519506;28;1367;-78
2022/06/10 00:51:54;;;;;;;5.57;3.05;;;;;;;;;;511632;29;1378;-78
2022/06/10 00:52:24;;;;;;;4.47;2.80;;;;;;;;;;511644;29;1831;-78
2022/06/10 00:52:47;;;;;;;3.20;2.80;;;;;;;;;;510017;28;2172;-78
2022/06/10 00:53:06;;;;;;;4.22;2.95;;;;;;;;;;519839;28;1541;-78
2022/06/10 00:53:30;;;;;;;5.00;2.97;;;;;;;;;;519935;28;1796;-78
2022/06/10 00:53:49;;;;;;;3.42;2.80;;;;;;;;;;520153;28;1350;-78
2022/06/10 00:54:23;;;;;;;4.30;2.75;;;;;;;;;;519857;28;1534;-78
2022/06/10 00:54:43;;;;;;;4.72;3.00;;;;;;;;;;516044;28;847;-78
2022/06/10 00:54:58;;;;;;;4.70;3.08;;;;;;;;;;516179;28;1398;-78
2022/06/10 00:55:14;;;;;;;3.57;2.83;;;;;;;;;;515871;28;1716;-78
2022/06/10 00:55:30;;;;;;;3.97;2.88;;;;;;;;;;516108;28;1167;-78
2022/06/10 00:55:49;;;;;;;5.20;2.95;;;;;;;;;;516148;28;878;-78
2022/06/10 00:56:10;;;;;;;5.00;2.95;;;;;;;;;;514211;28;1897;-78
2022/06/10 00:56:28;;;;;;;4.70;2.88;;;;;;;;;;512484;28;1312;-78
2022/06/10 00:56:48;;;;;;;4.65;2.83;;;;;;;;;;516132;28;1814;-78
2022/06/10 00:57:16;;;;;;;3.10;2.80;;;;;;;;;;516396;28;1227;-78
2022/06/10 00:57:39;;;;;;;3.53;2.95;;;;;;;;;;517872;28;1605;-78
2022/06/10 00:58:14;;;;;;;4.32;2.95;;;;;;;;;;517834;28;2046;-78
2022/06/10 00:58:36;;;;;;;6.25;3.20;;;;;;;;;;520041;28;885;-78
2022/06/10 00:59:04;;;;;;;5.40;3.00;;;;;;;;;;519509;28;1505;-78
2022/06/10 00:59:29;;;;;;;4.97;3.15;;;;;;;;;;518124;28;948;-78
2022/06/10 00:59:51;;;;;;;3.75;2.88;;;;;;;;;;516080;28;1295;-78
2022/06/10 01:00:16;;;;;;;3.45;3.00;;;;;;;;;;517252;28;1606;-78
2022/06/10 01:00:32;;;;;;;3.40;3.10;;;;;;;;;;518076;28;854;-78
2022/06/10 01:00:47;;;;;;;3.50;3.10;;;;;;;;;;518152;28;815;-78
2022/06/10 01:01:03;;;;;;;5.00;3.20;;;;;;;;;;518080;28;1179;-78
2022/06/10 01:01:20;;;;;;;5.72;3.10;;;;;;;;;;517952;28;885;-78
2022/06/10 01:01:37;;;;;;;4.35;3.00;;;;;;;;;;518673;28;1513;-78
2022/06/10 01:01:59;;;;;;;5.50;3.47;;;;;;;;;;520121;28;1059;-78
2022/06/10 01:02:18;;;;;;;5.97;3.35;;;;;;;;;;520004;28;1690;-78
2022/06/10 01:02:35;;;;;;;5.10;3.47;;;;;;;;;;518049;28;1358;-78
2022/06/10 01:02:50;;;;;;;4.25;3.45;;;;;;;;;;518209;28;1718;-77
2022/06/10 01:03:06;;;;;;;4.68;3.50;;;;;;;;;;519936;28;1797;-77
2022/06/10 01:03:21;;;;;;;5.53;3.30;;;;;;;;;;520079;28;1731;-77
2022/06/10 01:03:37;;;;;;;4.67;3.20;;;;;;;;;;519949;28;881;-78
2022/06/10 01:03:53;;;;;;;4.57;3.33;;;;;;;;;;517929;28;1325;-78
2022/06/10 01:04:10;;;;;;;4.93;3.40;;;;;;;;;;517642;28;1566;-78
2022/06/10 01:04:27;;;;;;;3.88;3.22;;;;;;;;;;517963;28;964;-78
2022/06/10 01:04:43;;;;;;;3.38;3.08;;;;;;;;;;519309;28;1575;-78
2022/06/10 01:05:00;;;;;;;3.22;2.88;;;;;;;;;;518714;28;1572;-78
2022/06/10 01:05:23;;;;;;;3.75;2.90;;;;;;;;;;517168;28;1538;-78
2022/06/10 01:05:38;;;;;;;4.03;3.00;;;;;;;;;;517856;28;1592;-78
2022/06/10 01:05:54;;;;;;;4.43;3.00;;;;;;;;;;518183;28;1015;-78
2022/06/10 01:06:09;;;;;;;4.03;3.10;;;;;;;;;;518102;28;1129;-78
2022/06/10 01:06:26;;;;;;;3.63;3.22;;;;;;;;;;518055;28;1347;-78
2022/06/10 01:06:41;;;;;;;3.60;3.03;;;;;;;;;;517795;28;1248;-78
2022/06/10 01:06:57;;;;;;;3.33;3.03;;;;;;;;;;515929;28;1083;-78
2022/06/10 01:07:17;;;;;;;3.50;3.15;;;;;;;;;;517465;28;952;-78
2022/06/10 01:07:35;;;;;;;3.78;3.22;;;;;;;;;;518110;28;1324;-78
2022/06/10 01:08:19;;;;;;;4.53;3.40;;;;;;;;;;517881;28;1274;-78
2022/06/10 01:08:34;;;;;;;3.30;2.88;;;;;;;;;;515153;28;1341;-79
2022/06/10 01:08:52;;;;;;;3.40;2.80;;;;;;;;;;520133;28;901;-78
2022/06/10 01:09:07;;;;;;;3.83;2.90;;;;;;;;;;518527;28;1254;-78
2022/06/10 01:09:24;;;;;;;3.58;3.00;;;;;;;;;;518235;28;1070;-78
2022/06/10 01:09:40;;;;;;;3.75;3.05;;;;;;;;;;518493;28;920;-78
2022/06/10 01:09:55;;;;;;;4.20;3.20;;;;;;;;;;517951;28;1298;-78
2022/06/10 01:10:15;;;;;;;4.95;3.20;;;;;;;;;;517738;28;1387;-78
2022/06/10 01:10:43;;;;;;;4.70;3.00;;;;;;;;;;515859;28;1695;-78
2022/06/10 01:11:01;;;;;;;3.20;2.90;;;;;;;;;;516454;28;1724;-78
2022/06/10 01:11:28;;;;;;;3.42;2.80;;;;;;;;;;517936;28;869;-78
2022/06/10 01:11:55;;;;;;;3.92;2.97;;;;;;;;;;518523;28;933;-78
2022/06/10 01:12:23;;;;;;;5.72;2.88;;;;;;;;;;520190;28;862;-78
2022/06/10 01:12:56;;;;;;;3.85;2.90;;;;;;;;;;519833;28;1550;-78
2022/06/10 01:13:38;;;;;;;5.05;2.85;;;;;;;;;;518143;28;1252;-78
2022/06/10 01:14:47;;;;;;;4.13;3.00;;;;;;;;;;518160;28;1032;-78
2022/06/10 01:15:10;;;;;;;4.78;3.00;;;;;;;;;;514499;28;1619;-78
2022/06/10 01:15:41;;;;;;;4.97;3.00;;;;;;;;;;513708;28;1650;-78
2022/06/10 01:16:04;;;;;;;5.65;3.10;;;;;;;;;;513682;28;997;-78
2022/06/10 01:16:30;;;;;;;3.17;2.83;;;;;;;;;;513665;28;1290;-78
2022/06/10 01:17:01;;;;;;;4.15;2.80;;;;;;;;;;513616;28;921;-78
2022/06/10 01:17:29;;;;;;;5.07;3.03;;;;;;;;;;511571;28;1657;-78
2022/06/10 01:18:03;;;;;;;3.50;2.83;;;;;;;;;;514105;28;1798;-78
2022/06/10 01:19:01;;;;;;;3.85;2.90;;;;;;;;;;519145;28;1529;-78
2022/06/10 01:19:43;;;;;;;4.13;3.00;;;;;;;;;;511809;29;934;-78
2022/06/10 01:20:16;;;;;;;5.75;2.95;;;;;;;;;;520141;28;1008;-78
2022/06/10 01:20:39;;;;;;;4.55;2.90;;;;;;;;;;519864;28;1341;-78
2022/06/10 01:20:58;;;;;;;5.80;2.88;;;;;;;;;;520150;28;1110;-78
2022/06/10 01:21:28;;;;;;;5.97;3.00;;;;;;;;;;520082;28;1240;-78
2022/06/10 01:22:28;;;;;;;4.15;2.97;;;;;;;;;;517861;28;1548;-78
2022/06/10 01:23:04;;;;;;;6.75;3.10;;;;;;;;;;511652;29;1604;-78
2022/06/10 01:23:25;;;;;;;4.93;2.97;;;;;;;;;;513809;28;949;-78
2022/06/10 01:24:18;;;;;;;4.47;2.78;;;;;;;;;;511933;28;1652;-78
2022/06/10 01:24:57;;;;;;;4.93;3.10;;;;;;;;;;520064;28;1592;-78
2022/06/10 01:25:30;;;;;;;3.80;2.85;;;;;;;;;;520172;28;1417;-78
2022/06/10 01:26:08;;;;;;;6.47;3.08;;;;;;;;;;520458;28;1736;-78
2022/06/10 01:27:48;;;;;;;4.75;2.95;;;;;;;;;;522015;28;1881;-78
2022/06/10 01:28:08;;;;;;;4.78;3.20;;;;;;;;;;520027;28;1538;-78
2022/06/10 01:28:49;;;;;;;4.18;3.22;;;;;;;;;;520240;28;933;-78
2022/06/10 01:29:10;;;;;;;5.75;3.25;;;;;;;;;;519608;28;1557;-78
2022/06/10 01:29:26;;;;;;;6.00;3.10;;;;;;;;;;519918;28;1507;-78
2022/06/10 01:30:03;;;;;;;4.40;3.00;;;;;;;;;;518004;28;1394;-78
2022/06/10 01:30:35;;;;;;;5.88;3.20;;;;;;;;;;516009;28;1342;-78
2022/06/10 01:30:54;;;;;;;5.30;3.20;;;;;;;;;;515899;28;1637;-78
2022/06/10 01:31:18;;;;;;;6.20;3.15;;;;;;;;;;514460;28;1768;-78
2022/06/10 01:31:52;;;;;;;5.70;3.10;;;;;;;;;;518906;28;957;-78
2022/06/10 01:32:29;;;;;;;4.93;3.25;;;;;;;;;;519844;28;1480;-78
2022/06/10 01:32:53;;;;;;;4.55;3.22;;;;;;;;;;517756;28;1468;-78
2022/06/10 01:33:25;;;;;;;4.10;3.10;;;;;;;;;;515803;28;2170;-78
2022/06/10 01:33:48;;;;;;;6.35;3.20;;;;;;;;;;515669;28;874;-78
2022/06/10 01:34:13;;;;;;;5.53;3.30;;;;;;;;;;516847;28;1649;-78
2022/06/10 01:34:50;;;;;;;6.40;3.30;;;;;;;;;;517635;28;1969;-78
2022/06/10 01:35:20;;;;;;;5.70;3.30;;;;;;;;;;517964;28;874;-78
2022/06/10 01:35:45;;;;;;;5.25;3.45;;;;;;;;;;518269;28;1353;-78
2022/06/10 01:36:22;;;;;;;4.45;3.40;;;;;;;;;;517688;28;1769;-78
2022/06/10 01:36:57;;;;;;;4.35;3.33;;;;;;;;;;519886;28;1556;-78
2022/06/10 01:37:48;;;;;;;6.32;3.35;;;;;;;;;;517976;28;865;-78
2022/06/10 01:38:23;;;;;;;6.07;3.65;;;;;;;;;;517117;28;1663;-78
2022/06/10 01:38:46;;;;;;;5.80;3.40;;;;;;;;;;520177;28;953;-78
2022/06/10 01:39:09;;;;;;;4.20;3.33;;;;;;;;;;517981;28;1522;-78
2022/06/10 01:39:27;;;;;;;5.50;3.30;;;;;;;;;;519198;28;1190;-78
2022/06/10 01:40:02;;;;;;;6.72;3.40;;;;;;;;;;517941;28;1374;-78
2022/06/10 01:40:26;;;;;;;5.60;3.60;;;;;;;;;;518007;28;870;-78
2022/06/10 01:41:10;;;;;;;5.00;3.30;;;;;;;;;;518160;28;1641;-78
2022/06/10 01:41:34;;;;;;;4.65;3.30;;;;;;;;;;517588;28;1972;-78
2022/06/10 01:42:22;;;;;;;5.10;3.30;;;;;;;;;;517116;28;1557;-78
2022/06/10 01:42:51;;;;;;;4.32;3.40;;;;;;;;;;507974;29;1315;-78
2022/06/10 01:43:14;;;;;;;4.35;3.70;;;;;;;;;;508859;29;1612;-78
2022/06/10 01:43:29;;;;;;;5.05;3.40;;;;;;;;;;507715;29;1760;-78
2022/06/10 01:44:03;;;;;;;6.20;3.40;;;;;;;;;;509221;29;923;-78
2022/06/10 01:44:33;;;;;;;4.95;3.35;;;;;;;;;;509986;29;977;-78
2022/06/10 01:44:59;;;;;;;5.28;3.40;;;;;;;;;;518122;28;956;-78
2022/06/10 01:45:18;;;;;;;5.43;3.53;;;;;;;;;;518690;28;1569;-78
2022/06/10 01:45:56;;;;;;;7.00;3.60;;;;;;;;;;519697;28;1504;-78
2022/06/10 01:46:37;;;;;;;4.75;3.33;;;;;;;;;;518763;28;1362;-78
2022/06/10 01:47:04;;;;;;;5.05;3.03;;;;;;;;;;518003;28;1370;-78
2022/06/10 01:47:40;;;;;;;6.30;3.20;;;;;;;;;;517895;28;1405;-78
2022/06/10 01:48:09;;;;;;;3.58;3.05;;;;;;;;;;516261;28;1699;-78
2022/06/10 01:48:43;;;;;;;4.15;3.10;;;;;;;;;;517834;28;1482;-78
2022/06/10 01:49:34;;;;;;;5.05;3.25;;;;;;;;;;517903;28;1177;-78
2022/06/10 01:49:49;;;;;;;5.57;3.10;;;;;;;;;;517769;28;2482;-78
2022/06/10 01:50:11;;;;;;;5.68;3.13;;;;;;;;;;518190;28;1008;-78
2022/06/10 01:50:36;;;;;;;4.45;3.30;;;;;;;;;;518035;28;1708;-78
2022/06/10 01:50:57;;;;;;;4.20;3.30;;;;;;;;;;519691;28;1120;-78
2022/06/10 01:51:19;;;;;;;4.50;3.20;;;;;;;;;;517949;28;1473;-78
2022/06/10 01:51:53;;;;;;;4.00;3.10;;;;;;;;;;518152;28;1754;-78
2022/06/10 01:52:19;;;;;;;4.97;3.50;;;;;;;;;;517932;28;1801;-78
2022/06/10 01:52:45;;;;;;;5.18;3.33;;;;;;;;;;518054;28;1371;-77
2022/06/10 01:53:07;;;;;;;4.95;3.20;;;;;;;;;;516040;28;1012;-77
2022/06/10 01:53:29;;;;;;;5.90;3.38;;;;;;;;;;519127;28;1582;-78
2022/06/10 01:53:53;;;;;;;4.50;3.20;;;;;;;;;;519912;28;984;-78
2022/06/10 01:54:20;;;;;;;4.68;3.13;;;;;;;;;;517852;28;857;-78
2022/06/10 01:54:41;;;;;;;5.47;3.30;;;;;;;;;;515722;28;1965;-77
2022/06/10 01:55:04;;;;;;;6.53;3.17;;;;;;;;;;517114;28;933;-77
2022/06/10 01:55:53;;;;;;;6.28;3.40;;;;;;;;;;518360;28;1593;-77
2022/06/10 01:56:20;;;;;;;6.18;3.42;;;;;;;;;;519785;28;996;-77
2022/06/10 01:56:41;;;;;;;5.50;3.38;;;;;;;;;;519527;28;1585;-77
2022/06/10 01:57:01;;;;;;;5.68;3.22;;;;;;;;;;519807;28;913;-77
2022/06/10 01:57:25;;;;;;;6.85;3.40;;;;;;;;;;517515;28;1243;-77
2022/06/10 01:57:57;;;;;;;5.88;3.20;;;;;;;;;;515689;28;956;-77
2022/06/10 01:58:20;;;;;;;3.58;2.90;;;;;;;;;;515767;28;937;-77
2022/06/10 01:58:44;;;;;;;6.22;3.30;;;;;;;;;;517771;28;909;-77
2022/06/10 01:59:15;;;;;;;6.00;3.20;;;;;;;;;;516050;28;1008;-77
2022/06/10 01:59:36;;;;;;;3.80;3.17;;;;;;;;;;518038;28;1553;-77
2022/06/10 02:00:11;;;;;;;4.68;3.17;;;;;;;;;;520008;28;1032;-77
2022/06/10 02:00:30;;;;;;;3.47;3.10;;;;;;;;;;519935;28;916;-77
2022/06/10 02:00:49;;;;;;;4.68;3.50;;;;;;;;;;517738;28;1503;-77
2022/06/10 02:01:10;;;;;;;5.65;3.45;;;;;;;;;;519937;28;1276;-77
2022/06/10 02:01:32;;;;;;;4.50;3.30;;;;;;;;;;517978;28;846;-79
2022/06/10 02:01:52;;;;;;;5.00;3.13;;;;;;;;;;517664;28;917;-79
2022/06/10 02:02:16;;;;;;;5.30;3.03;;;;;;;;;;515967;28;1247;-79
2022/06/10 02:02:35;;;;;;;4.55;3.13;;;;;;;;;;515496;28;1531;-79
2022/06/10 02:03:08;;;;;;;4.57;3.00;;;;;;;;;;515938;28;1052;-79
2022/06/10 02:03:36;;;;;;;5.38;3.42;;;;;;;;;;515834;28;877;-78
2022/06/10 02:03:59;;;;;;;4.40;3.38;;;;;;;;;;519204;28;1629;-78
2022/06/10 02:04:21;;;;;;;6.10;3.40;;;;;;;;;;520416;28;936;-78
2022/06/10 02:05:02;;;;;;;4.38;3.17;;;;;;;;;;519815;28;1746;-78
2022/06/10 02:05:21;;;;;;;4.78;3.13;;;;;;;;;;511903;28;1438;-78
2022/06/10 02:05:45;;;;;;;5.35;3.10;;;;;;;;;;520177;28;924;-78
2022/06/10 02:06:08;;;;;;;4.00;3.20;;;;;;;;;;517860;28;1301;-78
2022/06/10 02:06:30;;;;;;;4.80;3.22;;;;;;;;;;517846;28;873;-78
2022/06/10 02:06:48;;;;;;;4.55;3.25;;;;;;;;;;515835;28;1358;-78
2022/06/10 02:07:13;;;;;;;4.50;2.90;;;;;;;;;;516005;28;1099;-78
2022/06/10 02:07:35;;;;;;;5.05;3.05;;;;;;;;;;518543;28;1621;-78
2022/06/10 02:08:01;;;;;;;5.70;3.35;;;;;;;;;;518500;28;1208;-78
2022/06/10 02:08:21;;;;;;;6.07;3.20;;;;;;;;;;520126;28;882;-78
2022/06/10 02:08:44;;;;;;;4.65;3.28;;;;;;;;;;518089;28;1300;-78
2022/06/10 02:09:15;;;;;;;4.10;3.20;;;;;;;;;;518007;28;934;-78
2022/06/10 02:09:36;;;;;;;4.00;3.15;;;;;;;;;;514436;28;1650;-79
2022/06/10 02:10:03;;;;;;;5.95;3.08;;;;;;;;;;516128;28;942;-79
2022/06/10 02:10:31;;;;;;;4.30;2.95;;;;;;;;;;515957;28;1144;-79
2022/06/10 02:10:49;;;;;;;4.82;3.00;;;;;;;;;;518181;28;861;-79
2022/06/10 02:11:14;;;;;;;4.03;3.10;;;;;;;;;;518088;28;877;-79
2022/06/10 02:11:32;;;;;;;4.35;3.20;;;;;;;;;;517623;28;957;-79
2022/06/10 02:11:52;;;;;;;5.25;3.08;;;;;;;;;;517002;28;1786;-79
2022/06/10 02:12:37;;;;;;;5.00;3.05;;;;;;;;;;517845;28;1049;-79
2022/06/10 02:13:01;;;;;;;5.28;3.10;;;;;;;;;;518028;28;1023;-79
2022/06/10 02:13:22;;;;;;;4.45;3.22;;;;;;;;;;518143;28;921;-79
2022/06/10 02:13:43;;;;;;;4.57;3.00;;;;;;;;;;518364;28;1443;-79
2022/06/10 02:14:08;;;;;;;4.38;3.00;;;;;;;;;;517792;28;1015;-79
2022/06/10 02:14:30;;;;;;;4.55;3.20;;;;;;;;;;517981;28;921;-79
2022/06/10 02:14:57;;;;;;;4.30;3.10;;;;;;;;;;516099;28;1033;-79
2022/06/10 02:15:34;;;;;;;5.28;3.00;;;;;;;;;;516088;28;1632;-79
2022/06/10 02:15:57;;;;;;;4.00;3.00;;;;;;;;;;517861;28;1279;-78